createdAt,value
2022-11-06T00:01:26.441Z,1.50
2022-11-06T00:03:54.328Z,1.80
2022-11-06T00:06:40.124Z,1.87
2022-11-06T00:09:10.130Z,1.70
2022-11-06T00:11:38.615Z,1.30
2022-11-06T00:14:06.377Z,1.43
2022-11-06T00:16:34.047Z,1.40
2022-11-06T00:19:02.497Z,1.57
2022-11-06T00:21:31.390Z,1.40
2022-11-06T00:24:01.028Z,1.37
2022-11-06T00:26:30.161Z,1.30
2022-11-06T00:28:58.532Z,1.43
2022-11-06T00:31:32.113Z,1.10
2022-11-06T00:34:00.893Z,1.13
2022-11-06T00:36:32.788Z,1.40
2022-11-06T00:39:00.624Z,1.20
2022-11-06T00:41:28.634Z,0.80
2022-11-06T00:43:58.696Z,1.23
2022-11-06T00:46:26.328Z,1.07
2022-11-06T00:48:54.347Z,1.33
2022-11-06T00:51:27.512Z,1.10
2022-11-06T00:54:02.676Z,1.00
2022-11-06T00:56:31.307Z,0.83
2022-11-06T00:59:03.639Z,1.07
2022-11-06T01:01:33.753Z,1.00
2022-11-06T01:04:04.658Z,1.20
2022-11-06T01:06:34.871Z,1.07
2022-11-06T01:09:04.142Z,1.00
2022-11-06T01:11:52.459Z,1.13
2022-11-06T01:14:22.660Z,1.00
2022-11-06T01:16:50.250Z,1.10
2022-11-06T01:19:19.337Z,1.00
2022-11-06T01:21:47.703Z,2.10
2022-11-06T01:24:20.966Z,1.00
2022-11-06T01:27:05.263Z,1.20
2022-11-06T01:29:36.156Z,1.53
2022-11-06T01:32:04.154Z,1.50
2022-11-06T01:34:31.531Z,1.47
2022-11-06T01:36:58.792Z,1.70
2022-11-06T01:39:26.026Z,1.40
2022-11-06T01:41:54.209Z,1.50
2022-11-06T01:44:44.509Z,1.30
2022-11-06T01:47:28.933Z,1.50
2022-11-06T01:50:04.760Z,1.40
2022-11-06T01:52:33.752Z,1.10
2022-11-06T01:55:24.006Z,1.53
2022-11-06T01:57:51.935Z,1.40
2022-11-06T02:00:20.242Z,1.30
2022-11-06T02:02:48.195Z,1.10
2022-11-06T02:05:16.296Z,1.30
2022-11-06T02:07:44.829Z,1.40
2022-11-06T02:10:12.174Z,1.30
2022-11-06T02:12:45.378Z,1.20
2022-11-06T02:15:30.689Z,1.13
2022-11-06T02:18:09.921Z,1.50
2022-11-06T02:20:55.337Z,1.43
2022-11-06T02:23:59.776Z,1.10
2022-11-06T02:26:47.877Z,1.27
2022-11-06T02:29:49.334Z,1.23
2022-11-06T02:32:51.612Z,1.30
2022-11-06T02:35:25.324Z,1.00
2022-11-06T02:37:58.703Z,1.20
2022-11-06T02:40:33.321Z,1.17
2022-11-06T02:43:04.632Z,1.20
2022-11-06T02:45:36.477Z,1.40
2022-11-06T02:48:06.897Z,1.20
2022-11-06T02:50:40.465Z,1.30
2022-11-06T02:53:10.446Z,1.50
2022-11-06T02:55:40.801Z,1.20
2022-11-06T02:58:17.551Z,1.00
2022-11-06T03:00:50.816Z,0.90
2022-11-06T03:03:23.903Z,1.30
2022-11-06T03:06:17.223Z,0.90
2022-11-06T03:09:09.993Z,0.80
2022-11-06T03:11:40.362Z,1.10
2022-11-06T03:14:19.800Z,1.10
2022-11-06T03:16:56.384Z,1.17
2022-11-06T03:19:32.748Z,1.20
2022-11-06T03:22:02.923Z,1.10
2022-11-06T03:24:43.033Z,0.87
2022-11-06T03:27:16.587Z,1.10
2022-11-06T03:29:55.855Z,1.00
2022-11-06T03:32:49.423Z,1.00
2022-11-06T03:35:40.971Z,1.00
2022-11-06T03:38:11.883Z,1.10
2022-11-06T03:40:44.409Z,0.90
2022-11-06T03:43:14.513Z,1.30
2022-11-06T03:45:43.406Z,1.57
2022-11-06T03:48:21.768Z,1.20
2022-11-06T03:51:03.082Z,1.20
2022-11-06T03:53:36.528Z,1.50
2022-11-06T03:56:12.601Z,1.50
2022-11-06T03:58:44.133Z,2.30
2022-11-06T04:01:13.840Z,1.90
2022-11-06T04:03:53.981Z,1.83
2022-11-06T04:06:45.486Z,1.77
2022-11-06T04:09:33.840Z,2.17
2022-11-06T04:12:23.218Z,1.60
2022-11-06T04:14:53.479Z,1.73
2022-11-06T04:17:24.356Z,1.97
2022-11-06T04:19:58.709Z,1.60
2022-11-06T04:22:48.610Z,1.67
2022-11-06T04:25:43.266Z,1.70
2022-11-06T04:28:23.564Z,1.50
2022-11-06T04:30:50.776Z,1.40
2022-11-06T04:33:30.769Z,1.80
2022-11-06T04:36:22.840Z,1.73
2022-11-06T04:39:02.237Z,1.10
2022-11-06T04:41:37.167Z,1.10
2022-11-06T04:44:24.068Z,1.20
2022-11-06T04:47:05.281Z,1.37
2022-11-06T04:49:35.549Z,1.10
2022-11-06T04:52:06.351Z,1.10
2022-11-06T04:54:34.513Z,1.03
2022-11-06T04:57:03.141Z,1.23
2022-11-06T04:59:34.145Z,1.10
2022-11-06T05:02:01.736Z,1.10
2022-11-06T05:04:28.991Z,1.10
2022-11-06T05:06:56.178Z,1.00
2022-11-06T05:09:24.221Z,1.20
2022-11-06T05:11:51.609Z,1.03
2022-11-06T05:14:18.844Z,1.00
2022-11-06T05:16:46.211Z,1.23
2022-11-06T05:19:13.557Z,1.00
2022-11-06T05:21:59.376Z,1.20
2022-11-06T05:24:26.652Z,1.10
2022-11-06T05:26:59.077Z,1.13
2022-11-06T05:29:27.379Z,1.07
2022-11-06T05:31:54.914Z,1.10
2022-11-06T05:34:22.107Z,0.93
2022-11-06T05:36:49.287Z,1.20
2022-11-06T05:39:16.594Z,1.33
2022-11-06T05:41:43.911Z,1.10
2022-11-06T05:44:11.397Z,1.20
2022-11-06T05:46:54.085Z,1.10
2022-11-06T05:49:21.365Z,1.20
2022-11-06T05:51:48.769Z,1.20
2022-11-06T05:54:16.084Z,1.90
2022-11-06T05:56:43.320Z,1.27
2022-11-06T05:59:10.711Z,1.20
2022-11-06T06:01:38.090Z,1.20
2022-11-06T06:04:05.623Z,1.37
2022-11-06T06:06:33.584Z,1.47
2022-11-06T06:09:00.883Z,1.40
2022-11-06T06:11:28.070Z,1.70
2022-11-06T06:13:55.582Z,1.70
2022-11-06T06:16:22.943Z,1.30
2022-11-06T06:18:53.483Z,1.60
2022-11-06T06:21:20.692Z,1.93
2022-11-06T06:23:47.888Z,2.03
2022-11-06T06:26:15.335Z,1.80
2022-11-06T06:28:42.510Z,1.63
2022-11-06T06:31:10.827Z,2.20
2022-11-06T06:33:38.040Z,1.63
2022-11-06T06:36:06.224Z,1.67
2022-11-06T06:38:33.832Z,1.90
2022-11-06T06:41:06.066Z,1.17
2022-11-06T06:43:34.161Z,1.77
2022-11-06T06:46:02.879Z,1.50
2022-11-06T06:48:30.436Z,1.47
2022-11-06T06:50:59.177Z,1.30
2022-11-06T06:53:26.697Z,1.97
2022-11-06T06:55:54.387Z,2.40
2022-11-06T06:58:21.845Z,2.17
2022-11-06T07:00:49.426Z,2.53
2022-11-06T07:03:16.741Z,2.10
2022-11-06T07:05:44.288Z,1.90
2022-11-06T07:08:11.808Z,1.60
2022-11-06T07:10:39.368Z,4.80
2022-11-06T07:13:06.871Z,2.40
2022-11-06T07:15:34.309Z,1.60
2022-11-06T07:18:03.473Z,1.77
2022-11-06T07:20:31.273Z,2.20
2022-11-06T07:22:58.991Z,2.00
2022-11-06T07:25:26.692Z,2.73
2022-11-06T07:27:56.040Z,2.00
2022-11-06T07:30:26.402Z,1.93
2022-11-06T07:32:53.661Z,2.10
2022-11-06T07:35:21.002Z,3.10
2022-11-06T07:37:48.820Z,4.30
2022-11-06T07:40:16.181Z,4.80
2022-11-06T07:42:43.874Z,3.40
2022-11-06T07:45:11.511Z,2.40
2022-11-06T07:47:38.925Z,3.70
2022-11-06T07:50:06.847Z,3.20
2022-11-06T07:52:34.447Z,2.87
2022-11-06T07:55:02.023Z,3.20
2022-11-06T07:57:29.375Z,3.87
2022-11-06T07:59:56.742Z,4.10
2022-11-06T08:02:24.037Z,3.90
2022-11-06T08:04:51.315Z,3.43
2022-11-06T08:07:18.497Z,3.80
2022-11-06T08:09:45.797Z,3.80
2022-11-06T08:12:14.655Z,3.20
2022-11-06T08:14:42.018Z,2.60
2022-11-06T08:17:09.562Z,2.57
2022-11-06T08:19:36.816Z,2.60
2022-11-06T08:22:04.053Z,2.53
2022-11-06T08:24:31.392Z,3.20
2022-11-06T08:26:59.624Z,3.10
2022-11-06T08:29:27.147Z,3.67
2022-11-06T08:31:54.583Z,2.57
2022-11-06T08:34:21.899Z,2.30
2022-11-06T08:36:52.438Z,1.90
2022-11-06T08:39:19.766Z,1.97
2022-11-06T08:41:47.096Z,2.30
2022-11-06T08:44:14.348Z,2.53
2022-11-06T08:46:41.612Z,2.10
2022-11-06T08:49:10.131Z,2.30
2022-11-06T08:51:37.325Z,2.30
2022-11-06T08:54:04.536Z,2.23
2022-11-06T08:56:31.758Z,2.90
2022-11-06T08:58:59.313Z,3.40
2022-11-06T09:01:26.682Z,3.73
2022-11-06T09:03:54.040Z,2.63
2022-11-06T09:06:21.423Z,2.90
2022-11-06T09:08:48.692Z,2.60
2022-11-06T09:11:15.903Z,2.83
2022-11-06T09:13:43.142Z,3.17
2022-11-06T09:16:15.578Z,3.93
2022-11-06T09:18:44.127Z,3.47
2022-11-06T09:21:11.585Z,4.30
2022-11-06T09:23:38.796Z,3.50
2022-11-06T09:26:06.043Z,3.57
2022-11-06T09:28:33.241Z,2.13
2022-11-06T09:31:02.462Z,3.83
2022-11-06T09:33:29.819Z,2.90
2022-11-06T09:35:57.142Z,2.30
2022-11-06T09:38:24.325Z,1.83
2022-11-06T09:41:00.591Z,1.37
2022-11-06T09:44:08.206Z,1.50
2022-11-06T09:46:43.661Z,2.03
2022-11-06T09:49:27.254Z,1.40
2022-11-06T09:52:03.397Z,1.30
2022-11-06T09:54:52.099Z,1.60
2022-11-06T09:57:41.684Z,1.20
2022-11-06T10:00:13.939Z,1.30
2022-11-06T10:02:47.415Z,1.00
2022-11-06T10:05:26.781Z,1.40
2022-11-06T10:07:57.350Z,1.10
2022-11-06T10:11:06.767Z,0.97
2022-11-06T10:13:46.741Z,1.00
2022-11-06T10:16:16.699Z,0.83
2022-11-06T10:19:15.859Z,0.97
2022-11-06T10:21:50.327Z,0.77
2022-11-06T10:24:37.551Z,1.00
2022-11-06T10:27:34.323Z,1.00
2022-11-06T10:30:04.351Z,0.80
2022-11-06T10:32:53.231Z,0.80
2022-11-06T10:35:58.921Z,1.00
2022-11-06T10:38:35.318Z,0.70
2022-11-06T10:41:02.623Z,0.70
2022-11-06T10:43:55.616Z,1.03
2022-11-06T10:46:34.068Z,0.80
2022-11-06T10:49:04.100Z,1.00
2022-11-06T10:51:32.474Z,1.30
2022-11-06T10:54:18.488Z,0.80
2022-11-06T10:56:51.503Z,1.00
2022-11-06T10:59:19.311Z,0.70
2022-11-06T11:01:46.786Z,0.80
2022-11-06T11:04:14.090Z,0.90
2022-11-06T11:06:41.566Z,0.70
2022-11-06T11:09:27.265Z,0.60
2022-11-06T11:11:54.436Z,0.80
2022-11-06T11:14:27.852Z,0.70
2022-11-06T11:16:56.015Z,1.00
2022-11-06T11:19:39.707Z,1.00
2022-11-06T11:22:32.816Z,0.73
2022-11-06T11:25:01.422Z,0.93
2022-11-06T11:27:30.742Z,0.87
2022-11-06T11:29:58.508Z,1.20
2022-11-06T11:32:31.155Z,0.90
2022-11-06T11:34:59.075Z,0.73
2022-11-06T11:37:28.256Z,1.57
2022-11-06T11:39:56.132Z,0.90
2022-11-06T11:42:31.799Z,0.90
2022-11-06T11:45:11.252Z,1.00
2022-11-06T11:47:41.457Z,0.80
2022-11-06T11:50:32.972Z,0.80
2022-11-06T11:53:14.544Z,0.90
2022-11-06T11:55:45.442Z,0.80
2022-11-06T11:58:21.479Z,0.90
2022-11-06T12:01:09.353Z,1.10
2022-11-06T12:03:43.612Z,0.90
2022-11-06T12:06:14.547Z,0.80
2022-11-06T12:08:50.760Z,1.00
2022-11-06T12:11:28.203Z,0.70
2022-11-06T12:14:18.388Z,0.90
2022-11-06T12:16:49.448Z,0.80
2022-11-06T12:19:19.304Z,0.80
2022-11-06T12:21:54.268Z,0.70
2022-11-06T12:25:00.163Z,0.80
2022-11-06T12:27:32.385Z,0.70
2022-11-06T12:30:12.446Z,0.70
2022-11-06T12:33:19.639Z,0.80
2022-11-06T12:36:00.120Z,0.70
2022-11-06T12:38:27.267Z,0.80
2022-11-06T12:41:15.656Z,0.70
2022-11-06T12:43:48.903Z,0.83
2022-11-06T12:46:22.166Z,0.80
2022-11-06T12:49:13.665Z,0.70
2022-11-06T12:51:49.905Z,0.83
2022-11-06T12:54:20.126Z,0.80
2022-11-06T12:56:56.141Z,0.80
2022-11-06T12:59:50.527Z,0.80
2022-11-06T13:02:35.491Z,0.60
2022-11-06T13:05:17.729Z,0.50
2022-11-06T13:07:59.920Z,0.90
2022-11-06T13:10:45.961Z,0.70
2022-11-06T13:13:33.858Z,0.60
2022-11-06T13:16:04.951Z,0.80
2022-11-06T13:18:43.167Z,0.70
2022-11-06T13:21:25.312Z,0.70
2022-11-06T13:23:59.766Z,0.90
2022-11-06T13:26:45.869Z,0.67
2022-11-06T13:29:17.639Z,0.70
2022-11-06T13:31:51.848Z,0.70
2022-11-06T13:34:27.833Z,0.53
2022-11-06T13:36:56.175Z,0.50
2022-11-06T13:39:48.304Z,0.60
2022-11-06T13:42:33.500Z,0.70
2022-11-06T13:45:02.534Z,0.57
2022-11-06T13:47:45.403Z,0.50
2022-11-06T13:50:25.338Z,0.60
2022-11-06T13:52:59.926Z,0.53
2022-11-06T13:55:48.623Z,0.50
2022-11-06T13:58:31.891Z,0.60
2022-11-06T14:01:45.119Z,0.60
2022-11-06T14:05:05.300Z,0.80
2022-11-06T14:07:33.738Z,1.00
2022-11-06T14:10:01.263Z,1.00
2022-11-06T14:12:28.783Z,0.70
2022-11-06T14:15:28.344Z,0.90
2022-11-06T14:17:58.097Z,1.50
2022-11-06T14:20:30.329Z,0.90
2022-11-06T14:23:29.416Z,1.10
2022-11-06T14:26:03.711Z,0.90
2022-11-06T14:28:32.448Z,0.90
2022-11-06T14:31:19.735Z,1.10
2022-11-06T14:33:51.603Z,1.00
2022-11-06T14:36:24.628Z,1.57
2022-11-06T14:38:52.987Z,1.10
2022-11-06T14:41:35.552Z,1.30
2022-11-06T14:44:06.666Z,1.20
2022-11-06T14:46:34.165Z,1.00
2022-11-06T14:49:23.573Z,1.13
2022-11-06T14:52:10.811Z,1.37
2022-11-06T14:54:41.521Z,1.13
2022-11-06T14:57:16.874Z,1.40
2022-11-06T14:59:44.430Z,1.87
2022-11-06T15:02:20.913Z,1.80
2022-11-06T15:05:02.238Z,1.83
2022-11-06T15:08:02.729Z,1.40
2022-11-06T15:10:42.136Z,1.43
2022-11-06T15:13:18.423Z,1.40
2022-11-06T15:15:51.276Z,1.13
2022-11-06T15:18:23.709Z,1.10
2022-11-06T15:20:57.346Z,1.40
2022-11-06T15:23:27.961Z,1.17
2022-11-06T15:26:18.377Z,1.53
2022-11-06T15:28:52.051Z,2.20
2022-11-06T15:31:21.773Z,1.73
2022-11-06T15:33:58.769Z,2.00
2022-11-06T15:36:27.288Z,1.50
2022-11-06T15:38:54.592Z,1.37
2022-11-06T15:41:24.864Z,1.70
2022-11-06T15:43:55.030Z,1.50
2022-11-06T15:46:25.606Z,1.40
2022-11-06T15:49:16.627Z,1.30
2022-11-06T15:51:57.666Z,1.40
2022-11-06T15:54:56.877Z,1.57
2022-11-06T15:57:27.747Z,1.83
2022-11-06T16:00:27.397Z,6.67
2022-11-06T16:02:57.706Z,3.80
2022-11-06T16:05:27.331Z,1.23
2022-11-06T16:07:55.182Z,1.60
2022-11-06T16:10:23.809Z,1.23
2022-11-06T16:12:53.658Z,1.33
2022-11-06T16:15:45.467Z,1.20
2022-11-06T16:18:17.219Z,1.40
2022-11-06T16:20:48.426Z,1.50
2022-11-06T16:23:20.203Z,2.80
2022-11-06T16:25:47.791Z,1.93
2022-11-06T16:28:21.832Z,1.87
2022-11-06T16:30:50.092Z,2.23
2022-11-06T16:33:24.052Z,2.10
2022-11-06T16:35:55.310Z,1.23
2022-11-06T16:38:44.097Z,1.77
2022-11-06T16:41:39.694Z,2.40
2022-11-06T16:44:44.011Z,2.30
2022-11-06T16:47:11.287Z,2.80
2022-11-06T16:49:53.662Z,2.47
2022-11-06T16:52:21.731Z,3.40
2022-11-06T16:54:56.944Z,3.40
2022-11-06T16:57:55.094Z,4.10
2022-11-06T17:00:23.830Z,5.17
2022-11-06T17:02:57.871Z,5.23
2022-11-06T17:05:33.614Z,4.83
2022-11-06T17:08:07.144Z,6.97
2022-11-06T17:10:41.855Z,9.90
2022-11-06T17:13:14.195Z,11.90
2022-11-06T17:15:43.113Z,13.23
2022-11-06T17:18:31.846Z,14.03
2022-11-06T17:21:05.499Z,14.40
2022-11-06T17:23:33.907Z,13.60
2022-11-06T17:26:26.091Z,14.50
2022-11-06T17:28:54.129Z,13.30
2022-11-06T17:31:22.116Z,11.90
2022-11-06T17:33:49.588Z,14.73
2022-11-06T17:36:21.284Z,12.67
2022-11-06T17:38:49.505Z,12.53
2022-11-06T17:41:30.022Z,12.60
2022-11-06T17:44:18.532Z,13.30
2022-11-06T17:46:47.048Z,13.27
2022-11-06T17:49:17.994Z,13.07
2022-11-06T17:51:50.591Z,10.10
2022-11-06T17:54:20.035Z,9.63
2022-11-06T17:56:49.837Z,11.57
2022-11-06T17:59:17.368Z,9.77
2022-11-06T18:01:44.817Z,10.13
2022-11-06T18:04:12.241Z,9.90
2022-11-06T18:06:39.814Z,9.10
2022-11-06T18:09:08.192Z,9.57
2022-11-06T18:11:35.431Z,10.10
2022-11-06T18:14:03.278Z,10.30
2022-11-06T18:16:33.192Z,9.33
2022-11-06T18:19:00.776Z,9.00
2022-11-06T18:21:28.299Z,5.13
2022-11-06T18:23:55.567Z,7.27
2022-11-06T18:26:22.862Z,7.60
2022-11-06T18:28:50.884Z,8.30
2022-11-06T18:31:18.876Z,8.07
2022-11-06T18:33:47.232Z,9.40
2022-11-06T18:36:15.670Z,8.60
2022-11-06T18:38:43.485Z,7.37
2022-11-06T18:41:16.319Z,5.30
2022-11-06T18:43:44.112Z,6.23
2022-11-06T18:46:14.037Z,6.50
2022-11-06T18:48:41.949Z,5.13
2022-11-06T18:51:34.016Z,4.77
2022-11-06T18:54:04.937Z,4.07
2022-11-06T18:56:33.167Z,4.23
2022-11-06T18:59:00.540Z,4.27
2022-11-06T19:01:29.815Z,4.10
2022-11-06T19:03:57.661Z,3.87
2022-11-06T19:06:24.981Z,3.90
2022-11-06T19:08:52.302Z,3.70
2022-11-06T19:11:19.972Z,3.17
2022-11-06T19:13:48.668Z,3.13
2022-11-06T19:16:19.297Z,2.90
2022-11-06T19:21:30.743Z,3.73
2022-11-06T19:24:04.156Z,3.60
2022-11-06T19:26:34.619Z,2.77
2022-11-06T19:29:02.814Z,3.40
2022-11-06T19:31:32.176Z,3.40
2022-11-06T19:34:00.877Z,2.33
2022-11-06T19:36:28.741Z,2.70
2022-11-06T19:38:57.953Z,2.77
2022-11-06T19:41:26.771Z,3.73
2022-11-06T19:43:54.604Z,2.73
2022-11-06T19:46:25.977Z,3.23
2022-11-06T19:48:56.335Z,2.93
2022-11-06T19:51:24.969Z,2.80
2022-11-06T19:53:54.530Z,3.00
2022-11-06T19:56:22.508Z,2.23
2022-11-06T19:58:51.205Z,2.07
2022-11-06T20:01:19.812Z,2.83
2022-11-06T20:03:48.155Z,2.80
2022-11-06T20:06:17.217Z,2.43
2022-11-06T20:08:48.601Z,1.93
2022-11-06T20:11:16.797Z,2.80
2022-11-06T20:13:46.163Z,2.47
2022-11-06T20:16:19.371Z,2.27
2022-11-06T20:18:55.100Z,2.43
2022-11-06T20:21:26.485Z,2.20
2022-11-06T20:23:55.242Z,2.73
2022-11-06T20:26:23.492Z,2.47
2022-11-06T20:28:51.516Z,2.93
2022-11-06T20:31:19.980Z,2.43
2022-11-06T20:33:48.339Z,2.83
2022-11-06T20:36:23.131Z,2.50
2022-11-06T20:38:54.923Z,1.80
2022-11-06T20:41:23.499Z,2.30
2022-11-06T20:43:51.158Z,2.60
2022-11-06T20:46:20.724Z,13.10
2022-11-06T20:48:48.809Z,5.00
2022-11-06T20:51:25.652Z,5.67
2022-11-06T20:53:53.810Z,8.07
2022-11-06T20:56:25.401Z,5.60
2022-11-06T20:58:56.644Z,3.20
2022-11-06T21:01:27.273Z,2.83
2022-11-06T21:03:57.126Z,2.30
2022-11-06T21:06:26.244Z,3.50
2022-11-06T21:08:54.016Z,2.40
2022-11-06T21:11:23.704Z,2.70
2022-11-06T21:13:53.596Z,2.30
2022-11-06T21:16:24.658Z,2.23
2022-11-06T21:18:53.174Z,1.53
2022-11-06T21:21:24.502Z,2.03
2022-11-06T21:23:56.058Z,2.00
2022-11-06T21:26:28.929Z,2.17
2022-11-06T21:28:56.329Z,2.30
2022-11-06T21:31:26.302Z,10.50
2022-11-06T21:33:55.480Z,3.40
2022-11-06T21:36:25.712Z,1.80
2022-11-06T21:38:54.128Z,1.93
2022-11-06T21:41:24.337Z,2.10
2022-11-06T21:43:51.725Z,1.30
2022-11-06T21:46:19.953Z,1.43
2022-11-06T21:48:48.086Z,1.57
2022-11-06T21:51:22.139Z,1.20
2022-11-06T21:54:08.831Z,1.50
2022-11-06T21:56:37.119Z,1.30
2022-11-06T21:59:06.931Z,1.50
2022-11-06T22:01:34.408Z,1.17
2022-11-06T22:04:02.076Z,1.33
2022-11-06T22:06:30.207Z,1.30
2022-11-06T22:09:00.097Z,1.40
2022-11-06T22:11:45.555Z,1.33
2022-11-06T22:14:30.854Z,1.33
2022-11-06T22:17:16.563Z,1.60
2022-11-06T22:20:02.080Z,1.60
2022-11-06T22:22:29.705Z,1.30
2022-11-06T22:24:57.031Z,1.53
2022-11-06T22:27:24.304Z,1.67
2022-11-06T22:29:51.726Z,2.07
2022-11-06T22:32:18.932Z,1.50
2022-11-06T22:34:46.195Z,1.70
2022-11-06T22:37:13.430Z,1.90
2022-11-06T22:39:40.633Z,1.97
2022-11-06T22:42:07.871Z,2.00
2022-11-06T22:44:35.955Z,2.10
2022-11-06T22:47:04.498Z,2.00
2022-11-06T22:49:31.957Z,1.47
2022-11-06T22:51:59.266Z,1.60
2022-11-06T22:54:26.544Z,1.57
2022-11-06T22:56:53.811Z,1.60
2022-11-06T22:59:21.754Z,1.30
2022-11-06T23:01:48.976Z,1.10
2022-11-06T23:04:16.435Z,1.60
2022-11-06T23:06:44.771Z,1.30
2022-11-06T23:09:12.579Z,1.37
2022-11-06T23:11:40.046Z,1.30
2022-11-06T23:14:09.123Z,1.87
2022-11-06T23:16:55.498Z,1.57
2022-11-06T23:19:23.488Z,1.93
2022-11-06T23:21:50.870Z,1.87
2022-11-06T23:24:18.272Z,1.50
2022-11-06T23:26:45.624Z,1.30
2022-11-06T23:29:13.096Z,1.33
2022-11-06T23:31:41.289Z,1.20
2022-11-06T23:34:09.085Z,1.63
2022-11-06T23:36:36.270Z,1.90
2022-11-06T23:39:03.724Z,1.77
2022-11-06T23:41:42.993Z,1.80
2022-11-06T23:44:30.224Z,1.27
2022-11-06T23:46:58.254Z,1.60
2022-11-06T23:49:25.911Z,1.30
2022-11-06T23:51:53.619Z,1.30
2022-11-06T23:54:21.137Z,1.43
2022-11-06T23:56:48.436Z,1.20
2022-11-06T23:59:15.832Z,1.63
